createdAt,value
2023-01-15T00:04:08.735Z,1.27
2023-01-15T00:06:38.452Z,1.50
2023-01-15T00:09:06.035Z,1.37
2023-01-15T00:11:33.571Z,1.33
2023-01-15T00:17:04.821Z,1.40
2023-01-15T00:19:32.239Z,1.23
2023-01-15T00:21:59.681Z,1.40
2023-01-15T00:24:44.783Z,1.40
2023-01-15T00:30:08.284Z,1.10
2023-01-15T00:35:37.837Z,1.10
2023-01-15T00:38:05.459Z,1.17
2023-01-15T00:40:32.904Z,1.10
2023-01-15T00:43:00.325Z,1.40
2023-01-15T00:48:16.523Z,1.17
2023-01-15T00:50:45.334Z,1.10
2023-01-15T00:53:12.750Z,1.10
2023-01-15T00:55:40.182Z,1.20
2023-01-15T01:01:11.037Z,0.87
2023-01-15T01:03:38.602Z,0.73
2023-01-15T01:06:07.980Z,1.13
2023-01-15T01:08:35.961Z,1.00
2023-01-15T01:13:51.710Z,0.90
2023-01-15T01:16:27.324Z,0.93
2023-01-15T01:18:55.243Z,0.90
2023-01-15T01:21:24.315Z,1.00
2023-01-15T01:26:54.917Z,0.90
2023-01-15T01:29:23.575Z,0.90
2023-01-15T01:31:51.499Z,1.13
2023-01-15T01:34:19.716Z,0.93
2023-01-15T01:39:47.553Z,0.90
2023-01-15T01:42:17.220Z,1.13
2023-01-15T01:45:00.864Z,1.07
2023-01-15T01:47:30.519Z,1.20
2023-01-15T01:50:08.399Z,1.30
2023-01-15T01:52:40.216Z,1.30
2023-01-15T01:58:01.795Z,1.13
2023-01-15T02:00:30.017Z,1.40
2023-01-15T02:02:58.171Z,1.40
2023-01-15T02:05:30.750Z,1.40
2023-01-15T02:11:00.587Z,0.90
2023-01-15T02:13:37.465Z,1.20
2023-01-15T02:16:09.569Z,1.07
2023-01-15T02:18:42.012Z,1.30
2023-01-15T02:24:12.167Z,1.23
2023-01-15T02:29:49.836Z,1.13
2023-01-15T02:32:28.412Z,1.20
2023-01-15T02:35:00.610Z,1.47
2023-01-15T02:37:31.386Z,1.50
2023-01-15T02:42:58.716Z,1.10
2023-01-15T02:45:30.445Z,1.57
2023-01-15T02:48:06.805Z,1.40
2023-01-15T02:50:37.879Z,1.57
2023-01-15T02:55:55.361Z,1.60
2023-01-15T03:01:33.621Z,1.80
2023-01-15T03:04:07.899Z,1.50
2023-01-15T03:06:39.337Z,1.70
2023-01-15T03:09:07.652Z,1.30
2023-01-15T03:14:36.331Z,1.63
2023-01-15T03:17:10.646Z,1.90
2023-01-15T03:19:42.224Z,1.73
2023-01-15T03:22:19.204Z,1.90
2023-01-15T03:27:41.246Z,2.07
2023-01-15T03:33:15.119Z,2.27
2023-01-15T03:35:49.285Z,1.83
2023-01-15T03:38:28.706Z,1.73
2023-01-15T03:41:02.341Z,1.60
2023-01-15T03:46:47.901Z,1.90
2023-01-15T03:52:22.100Z,1.83
2023-01-15T03:54:55.505Z,1.70
2023-01-15T03:57:29.065Z,1.53
2023-01-15T03:59:59.206Z,2.13
2023-01-15T04:05:26.418Z,1.80
2023-01-15T04:07:55.846Z,2.00
2023-01-15T04:10:23.570Z,1.67
2023-01-15T04:12:52.087Z,1.83
2023-01-15T04:18:16.495Z,1.90
2023-01-15T04:20:44.059Z,1.60
2023-01-15T04:23:13.499Z,1.80
2023-01-15T04:25:41.233Z,1.63
2023-01-15T04:31:16.658Z,1.50
2023-01-15T04:36:47.971Z,1.50
2023-01-15T04:39:16.720Z,2.13
2023-01-15T04:42:01.743Z,1.77
2023-01-15T04:44:29.260Z,1.80
2023-01-15T04:49:55.457Z,1.50
2023-01-15T04:52:22.913Z,1.93
2023-01-15T04:54:51.735Z,1.47
2023-01-15T04:57:19.159Z,1.93
2023-01-15T05:02:39.489Z,1.87
2023-01-15T05:05:07.420Z,1.83
2023-01-15T05:07:34.863Z,1.70
2023-01-15T05:10:03.631Z,1.80
2023-01-15T05:15:18.978Z,1.70
2023-01-15T05:17:46.437Z,1.77
2023-01-15T05:20:14.885Z,1.60
2023-01-15T05:22:42.399Z,1.70
2023-01-15T05:28:01.932Z,1.80
2023-01-15T05:30:29.355Z,2.00
2023-01-15T05:32:56.765Z,1.90
2023-01-15T05:35:24.213Z,1.87
2023-01-15T05:40:59.178Z,1.70
2023-01-15T05:46:42.577Z,1.40
2023-01-15T05:49:12.184Z,2.03
2023-01-15T05:51:40.018Z,1.80
2023-01-15T05:54:08.736Z,1.97
2023-01-15T05:59:34.563Z,2.27
2023-01-15T06:02:03.297Z,1.50
2023-01-15T06:04:30.785Z,1.70
2023-01-15T06:06:58.746Z,2.03
2023-01-15T06:12:14.482Z,1.87
2023-01-15T06:14:41.902Z,1.77
2023-01-15T06:17:10.746Z,1.80
2023-01-15T06:19:38.197Z,1.83
2023-01-15T06:25:04.248Z,1.70
2023-01-15T06:27:31.680Z,2.07
2023-01-15T06:29:59.141Z,2.03
2023-01-15T06:32:28.264Z,2.03
2023-01-15T06:35:33.390Z,2.20
2023-01-15T06:38:00.878Z,1.83
2023-01-15T06:43:48.370Z,1.80
2023-01-15T06:46:34.733Z,2.00
2023-01-15T06:49:26.792Z,1.80
2023-01-15T06:51:54.218Z,2.23
2023-01-15T06:54:21.712Z,2.20
2023-01-15T06:56:49.152Z,2.27
2023-01-15T07:02:14.629Z,2.93
2023-01-15T07:04:43.473Z,2.03
2023-01-15T07:07:10.952Z,2.00
2023-01-15T07:09:38.452Z,2.00
2023-01-15T07:14:55.519Z,2.20
2023-01-15T07:17:22.947Z,2.17
2023-01-15T07:19:52.066Z,2.17
2023-01-15T07:22:19.546Z,2.10
2023-01-15T07:27:49.782Z,2.37
2023-01-15T07:30:17.844Z,2.53
2023-01-15T07:32:45.257Z,2.23
2023-01-15T07:35:16.083Z,2.73
2023-01-15T07:41:06.470Z,2.60
2023-01-15T07:46:54.241Z,2.43
2023-01-15T07:49:39.244Z,2.20
2023-01-15T07:52:08.053Z,3.20
2023-01-15T07:54:35.505Z,2.33
2023-01-15T08:00:06.866Z,2.43
2023-01-15T08:05:37.511Z,2.10
2023-01-15T08:08:06.536Z,3.07
2023-01-15T08:10:53.128Z,2.23
2023-01-15T08:13:38.201Z,2.80
2023-01-15T08:19:07.958Z,2.47
2023-01-15T08:21:35.396Z,2.23
2023-01-15T08:24:04.311Z,2.23
2023-01-15T08:26:31.792Z,2.77
2023-01-15T08:31:48.048Z,2.73
2023-01-15T08:34:15.909Z,2.40
2023-01-15T08:36:43.353Z,3.40
2023-01-15T08:39:12.191Z,3.17
2023-01-15T08:44:28.038Z,3.10
2023-01-15T08:46:55.491Z,3.10
2023-01-15T08:49:23.021Z,2.97
2023-01-15T08:51:51.958Z,3.00
2023-01-15T08:57:13.666Z,2.90
2023-01-15T09:02:40.488Z,3.13
2023-01-15T09:05:08.740Z,2.70
2023-01-15T09:07:37.132Z,3.03
2023-01-15T09:10:05.356Z,3.10
2023-01-15T09:15:36.826Z,3.10
2023-01-15T09:18:04.393Z,3.00
2023-01-15T09:20:34.038Z,3.00
2023-01-15T09:23:02.646Z,2.57
2023-01-15T09:28:33.288Z,2.60
2023-01-15T09:31:02.218Z,2.67
2023-01-15T09:33:29.727Z,2.83
2023-01-15T09:35:57.204Z,2.73
2023-01-15T09:41:42.694Z,2.57
2023-01-15T09:47:18.117Z,2.60
2023-01-15T09:49:55.073Z,2.40
2023-01-15T09:52:27.592Z,2.73
2023-01-15T09:55:03.364Z,2.30
2023-01-15T10:00:36.841Z,2.63
2023-01-15T10:06:16.539Z,2.40
2023-01-15T10:08:46.067Z,2.97
2023-01-15T10:11:19.182Z,2.90
2023-01-15T10:13:49.182Z,3.37
2023-01-15T10:19:16.878Z,3.03
2023-01-15T10:21:51.713Z,2.80
2023-01-15T10:24:21.095Z,3.13
2023-01-15T10:26:55.006Z,2.90
2023-01-15T10:32:23.244Z,3.00
2023-01-15T10:38:12.764Z,3.23
2023-01-15T10:44:10.397Z,3.10
2023-01-15T10:46:40.439Z,3.57
2023-01-15T10:49:13.940Z,3.83
2023-01-15T10:51:44.938Z,3.30
2023-01-15T10:57:09.922Z,3.50
2023-01-15T10:59:41.541Z,3.00
2023-01-15T11:02:22.483Z,3.10
2023-01-15T11:04:50.074Z,2.90
2023-01-15T11:10:10.999Z,3.10
2023-01-15T11:16:05.224Z,3.53
2023-01-15T11:18:53.258Z,2.80
2023-01-15T11:21:22.733Z,2.97
2023-01-15T11:23:50.968Z,2.93
2023-01-15T11:29:30.387Z,3.10
2023-01-15T11:34:58.631Z,3.20
2023-01-15T11:37:27.452Z,3.20
2023-01-15T11:39:56.361Z,3.30
2023-01-15T11:42:41.641Z,3.97
2023-01-15T11:48:16.264Z,3.47
2023-01-15T11:53:51.198Z,3.70
2023-01-15T11:56:21.008Z,3.63
2023-01-15T11:58:50.021Z,3.20
2023-01-15T12:01:23.395Z,2.90
2023-01-15T12:06:41.266Z,3.83
2023-01-15T12:09:15.885Z,3.30
2023-01-15T12:11:47.186Z,3.17
2023-01-15T12:14:44.144Z,2.90
2023-01-15T12:20:07.246Z,3.17
2023-01-15T12:25:45.924Z,3.33
2023-01-15T12:28:15.174Z,2.97
2023-01-15T12:30:48.184Z,3.33
2023-01-15T12:33:22.477Z,3.10
2023-01-15T12:38:46.884Z,3.10
2023-01-15T12:41:17.266Z,3.50
2023-01-15T12:44:04.557Z,3.30
2023-01-15T12:46:33.551Z,3.20
2023-01-15T12:51:50.072Z,3.50
2023-01-15T12:57:16.351Z,3.27
2023-01-15T12:59:48.734Z,3.60
2023-01-15T13:02:21.260Z,3.10
2023-01-15T13:04:51.208Z,3.70
2023-01-15T13:10:24.056Z,4.27
2023-01-15T13:12:54.585Z,3.20
2023-01-15T13:15:28.073Z,3.23
2023-01-15T13:18:03.546Z,3.43
2023-01-15T13:23:33.457Z,3.80
2023-01-15T13:29:20.934Z,3.70
2023-01-15T13:32:09.730Z,3.23
2023-01-15T13:34:40.160Z,3.07
2023-01-15T13:37:17.476Z,3.13
2023-01-15T13:42:34.357Z,3.63
2023-01-15T13:48:08.569Z,3.30
2023-01-15T13:50:37.937Z,3.10
2023-01-15T13:55:41.650Z,3.60
2023-01-15T14:01:08.582Z,3.17
2023-01-15T14:03:39.263Z,3.30
2023-01-15T14:06:08.934Z,3.53
2023-01-15T14:08:41.482Z,2.90
2023-01-15T14:14:27.906Z,3.50
2023-01-15T14:20:14.958Z,2.83
2023-01-15T14:22:55.837Z,3.00
2023-01-15T14:25:31.779Z,3.50
2023-01-15T14:28:08.440Z,3.03
2023-01-15T14:30:42.484Z,3.00
2023-01-15T14:33:19.345Z,3.40
2023-01-15T14:38:38.150Z,2.80
2023-01-15T14:41:07.656Z,3.30
2023-01-15T14:43:36.942Z,3.20
2023-01-15T14:46:14.662Z,3.50
2023-01-15T14:51:33.229Z,3.00
2023-01-15T14:54:03.742Z,3.20
2023-01-15T14:59:19.153Z,3.17
2023-01-15T15:04:52.762Z,3.03
2023-01-15T15:10:22.428Z,3.13
2023-01-15T15:12:55.393Z,2.87
2023-01-15T15:15:39.908Z,3.00
2023-01-15T15:18:14.665Z,3.10
2023-01-15T15:23:44.548Z,2.70
2023-01-15T15:29:20.416Z,2.90
2023-01-15T15:31:53.578Z,3.03
2023-01-15T15:34:27.169Z,3.30
2023-01-15T15:36:55.889Z,3.27
2023-01-15T15:42:33.879Z,3.17
2023-01-15T15:45:18.936Z,2.77
2023-01-15T15:48:05.073Z,3.20
2023-01-15T15:50:34.052Z,3.23
2023-01-15T15:53:06.648Z,3.10
2023-01-15T15:55:38.942Z,3.30
2023-01-15T15:58:06.800Z,3.20
2023-01-15T16:00:39.293Z,3.37
2023-01-15T16:03:16.386Z,2.80
2023-01-15T16:05:46.603Z,3.30
2023-01-15T16:08:19.467Z,3.17
2023-01-15T16:10:48.951Z,3.10
2023-01-15T16:13:24.705Z,3.20
2023-01-15T16:15:55.990Z,3.50
2023-01-15T16:18:26.437Z,3.30
2023-01-15T16:20:54.383Z,3.80
2023-01-15T16:23:23.453Z,3.57
2023-01-15T16:26:00.217Z,3.77
2023-01-15T16:28:31.803Z,3.60
2023-01-15T16:31:00.757Z,3.10
2023-01-15T16:33:29.859Z,3.30
2023-01-15T16:35:58.332Z,3.60
2023-01-15T16:38:26.440Z,3.60
2023-01-15T16:40:54.163Z,3.80
2023-01-15T16:43:23.630Z,3.60
2023-01-15T16:46:03.511Z,4.00
2023-01-15T16:48:37.868Z,3.50
2023-01-15T16:51:34.198Z,3.40
2023-01-15T16:54:03.493Z,3.53
2023-01-15T16:56:51.366Z,3.77
2023-01-15T16:59:20.545Z,3.60
2023-01-15T17:01:49.011Z,3.67
2023-01-15T17:04:22.795Z,3.67
2023-01-15T17:09:44.505Z,3.50
2023-01-15T17:12:22.793Z,3.40
2023-01-15T17:14:50.245Z,3.70
2023-01-15T17:17:24.844Z,3.50
2023-01-15T17:22:57.012Z,3.73
2023-01-15T17:28:25.805Z,3.30
2023-01-15T17:30:54.342Z,3.77
2023-01-15T17:33:22.472Z,3.80
2023-01-15T17:35:49.911Z,3.80
2023-01-15T17:41:10.789Z,3.63
2023-01-15T17:43:38.222Z,3.77
2023-01-15T17:46:06.004Z,3.57
2023-01-15T17:48:33.777Z,3.80
2023-01-15T17:54:04.362Z,3.60
2023-01-15T17:56:50.779Z,3.80
2023-01-15T17:59:36.051Z,3.73
2023-01-15T18:02:23.043Z,3.80
2023-01-15T18:05:11.747Z,3.75
2023-01-15T18:07:41.702Z,3.40
2023-01-15T18:12:58.565Z,3.57
2023-01-15T18:15:26.010Z,3.30
2023-01-15T18:17:53.442Z,3.30
2023-01-15T18:20:21.024Z,3.40
2023-01-15T18:25:51.239Z,4.20
2023-01-15T18:28:20.011Z,3.80
2023-01-15T18:30:48.972Z,3.53
2023-01-15T18:33:20.365Z,3.77
2023-01-15T18:38:50.233Z,3.30
2023-01-15T18:45:02.922Z,3.37
2023-01-15T18:47:30.345Z,3.97
2023-01-15T18:49:57.877Z,3.73
2023-01-15T18:52:51.038Z,3.57
2023-01-15T18:58:20.812Z,3.80
2023-01-15T19:03:38.522Z,3.60
2023-01-15T19:06:10.168Z,3.83
2023-01-15T19:08:37.588Z,4.10
2023-01-15T19:11:11.890Z,4.10
2023-01-15T19:16:55.851Z,3.60
2023-01-15T19:19:24.655Z,3.27
2023-01-15T19:22:12.808Z,3.37
2023-01-15T19:24:40.491Z,3.30
2023-01-15T19:29:44.317Z,3.30
2023-01-15T19:32:11.918Z,3.00
2023-01-15T19:34:40.755Z,3.27
2023-01-15T19:37:08.168Z,3.17
2023-01-15T19:42:41.260Z,3.40
2023-01-15T19:48:33.206Z,3.30
2023-01-15T19:51:02.353Z,3.17
2023-01-15T19:53:29.888Z,3.47
2023-01-15T19:55:57.453Z,3.10
2023-01-15T20:01:23.487Z,3.67
2023-01-15T20:03:50.938Z,3.30
2023-01-15T20:06:19.749Z,3.87
2023-01-15T20:08:47.169Z,3.40
2023-01-15T20:14:03.217Z,3.40
2023-01-15T20:16:30.653Z,3.20
2023-01-15T20:18:58.100Z,3.50
2023-01-15T20:21:26.878Z,3.30
2023-01-15T20:26:45.310Z,3.10
2023-01-15T20:29:12.742Z,2.97
2023-01-15T20:31:40.186Z,3.37
2023-01-15T20:34:07.669Z,3.10
2023-01-15T20:39:47.183Z,3.20
2023-01-15T20:45:17.408Z,2.90
2023-01-15T20:48:13.949Z,3.27
2023-01-15T20:50:43.185Z,3.07
2023-01-15T20:53:11.636Z,3.13
2023-01-15T20:58:28.301Z,3.00
2023-01-15T21:03:56.228Z,3.00
2023-01-15T21:06:23.726Z,3.17
2023-01-15T21:08:51.205Z,3.00
2023-01-15T21:11:18.632Z,3.03
2023-01-15T21:16:38.662Z,3.00
2023-01-15T21:19:06.121Z,3.10
2023-01-15T21:21:33.533Z,2.90
2023-01-15T21:24:01.781Z,2.90
2023-01-15T21:29:18.247Z,2.97
2023-01-15T21:31:47.268Z,3.00
2023-01-15T21:34:14.897Z,3.10
2023-01-15T21:36:42.539Z,2.80
2023-01-15T21:42:15.758Z,3.23
2023-01-15T21:44:44.387Z,3.40
2023-01-15T21:47:14.912Z,2.87
2023-01-15T21:49:42.947Z,3.33
2023-01-15T21:55:13.561Z,2.90
2023-01-15T21:57:41.058Z,3.07
2023-01-15T22:00:10.943Z,3.17
2023-01-15T22:02:40.198Z,3.13
2023-01-15T22:08:09.829Z,3.03
2023-01-15T22:10:37.348Z,3.30
2023-01-15T22:13:04.825Z,3.20
2023-01-15T22:15:32.291Z,3.20
2023-01-15T22:20:58.265Z,2.70
2023-01-15T22:26:30.438Z,2.97
2023-01-15T22:28:58.794Z,3.10
2023-01-15T22:31:26.350Z,3.07
2023-01-15T22:33:54.161Z,3.67
2023-01-15T22:39:26.684Z,3.00
2023-01-15T22:45:16.375Z,3.40
2023-01-15T22:47:43.778Z,3.60
2023-01-15T22:50:12.365Z,3.43
2023-01-15T22:52:40.452Z,3.10
2023-01-15T22:58:02.597Z,3.37
2023-01-15T23:00:30.075Z,3.63
2023-01-15T23:03:04.831Z,3.20
2023-01-15T23:05:35.728Z,2.97
2023-01-15T23:10:51.455Z,3.00
2023-01-15T23:13:21.015Z,3.27
2023-01-15T23:15:58.014Z,3.30
2023-01-15T23:18:25.588Z,3.10
2023-01-15T23:23:41.485Z,3.50
2023-01-15T23:26:11.093Z,3.30
2023-01-15T23:28:39.920Z,3.53
2023-01-15T23:31:09.042Z,3.13
2023-01-15T23:36:25.691Z,3.60
2023-01-15T23:38:53.585Z,3.30
2023-01-15T23:41:44.575Z,3.30
2023-01-15T23:44:33.400Z,3.60
2023-01-15T23:47:24.796Z,3.30
2023-01-15T23:49:53.613Z,3.60
2023-01-15T23:55:10.124Z,3.43
2023-01-15T23:57:37.709Z,3.47
